sensor_id;sensor_type;location;lat;lon;timestamp;P1;durP1;ratioP1;P2;durP2;ratioP2
15331;SDS011;7766;51.534;6.722;2023-05-07T00:00:34;9.97;;;8.97;;
15331;SDS011;7766;51.534;6.722;2023-05-07T00:01:35;11.03;;;9.80;;
15331;SDS011;7766;51.534;6.722;2023-05-07T00:02:36;10.57;;;9.50;;
15331;SDS011;7766;51.534;6.722;2023-05-07T00:03:37;10.83;;;9.80;;
15331;SDS011;7766;51.534;6.722;2023-05-07T00:04:39;10.80;;;9.60;;
15331;SDS011;7766;51.534;6.722;2023-05-07T00:05:39;10.50;;;9.47;;
15331;SDS011;7766;51.534;6.722;2023-05-07T00:06:41;11.33;;;10.13;;
15331;SDS011;7766;51.534;6.722;2023-05-07T00:07:42;10.30;;;9.20;;
15331;SDS011;7766;51.534;6.722;2023-05-07T00:08:43;10.43;;;9.37;;
15331;SDS011;7766;51.534;6.722;2023-05-07T00:09:44;11.73;;;10.20;;
15331;SDS011;7766;51.534;6.722;2023-05-07T00:10:45;10.37;;;9.13;;
15331;SDS011;7766;51.534;6.722;2023-05-07T00:11:46;10.17;;;9.10;;
15331;SDS011;7766;51.534;6.722;2023-05-07T00:12:47;10.57;;;9.27;;
15331;SDS011;7766;51.534;6.722;2023-05-07T00:13:48;11.47;;;10.17;;
15331;SDS011;7766;51.534;6.722;2023-05-07T00:14:49;13.60;;;9.47;;
15331;SDS011;7766;51.534;6.722;2023-05-07T00:15:50;12.47;;;9.67;;
15331;SDS011;7766;51.534;6.722;2023-05-07T00:16:51;12.30;;;9.60;;
15331;SDS011;7766;51.534;6.722;2023-05-07T00:17:53;10.83;;;9.73;;
15331;SDS011;7766;51.534;6.722;2023-05-07T00:18:54;10.63;;;9.23;;
15331;SDS011;7766;51.534;6.722;2023-05-07T00:19:55;10.47;;;9.37;;
15331;SDS011;7766;51.534;6.722;2023-05-07T00:20:56;10.73;;;9.60;;
15331;SDS011;7766;51.534;6.722;2023-05-07T00:21:57;12.77;;;11.57;;
15331;SDS011;7766;51.534;6.722;2023-05-07T00:22:58;13.47;;;12.07;;
15331;SDS011;7766;51.534;6.722;2023-05-07T00:23:59;13.73;;;11.03;;
15331;SDS011;7766;51.534;6.722;2023-05-07T00:25:00;16.87;;;14.03;;
15331;SDS011;7766;51.534;6.722;2023-05-07T00:26:01;14.07;;;12.57;;
15331;SDS011;7766;51.534;6.722;2023-05-07T00:27:01;11.73;;;10.57;;
15331;SDS011;7766;51.534;6.722;2023-05-07T00:28:02;10.43;;;9.43;;
15331;SDS011;7766;51.534;6.722;2023-05-07T00:29:03;11.37;;;10.27;;
15331;SDS011;7766;51.534;6.722;2023-05-07T00:30:05;11.07;;;9.97;;
15331;SDS011;7766;51.534;6.722;2023-05-07T00:31:06;11.30;;;10.20;;
15331;SDS011;7766;51.534;6.722;2023-05-07T00:32:08;14.30;;;10.90;;
15331;SDS011;7766;51.534;6.722;2023-05-07T00:33:09;13.50;;;10.93;;
15331;SDS011;7766;51.534;6.722;2023-05-07T00:34:09;11.90;;;10.50;;
15331;SDS011;7766;51.534;6.722;2023-05-07T00:35:10;11.93;;;10.73;;
15331;SDS011;7766;51.534;6.722;2023-05-07T00:36:11;11.80;;;10.33;;
15331;SDS011;7766;51.534;6.722;2023-05-07T00:37:12;12.13;;;10.90;;
15331;SDS011;7766;51.534;6.722;2023-05-07T00:38:13;11.33;;;10.23;;
15331;SDS011;7766;51.534;6.722;2023-05-07T00:39:14;12.10;;;10.40;;
15331;SDS011;7766;51.534;6.722;2023-05-07T00:40:15;14.03;;;11.27;;
15331;SDS011;7766;51.534;6.722;2023-05-07T00:41:16;11.20;;;10.20;;
15331;SDS011;7766;51.534;6.722;2023-05-07T00:42:18;11.80;;;10.50;;
15331;SDS011;7766;51.534;6.722;2023-05-07T00:43:18;11.83;;;10.73;;
15331;SDS011;7766;51.534;6.722;2023-05-07T00:44:19;12.23;;;11.03;;
15331;SDS011;7766;51.534;6.722;2023-05-07T00:45:20;11.73;;;10.53;;
15331;SDS011;7766;51.534;6.722;2023-05-07T00:46:21;14.00;;;10.80;;
15331;SDS011;7766;51.534;6.722;2023-05-07T00:47:22;12.30;;;11.10;;
15331;SDS011;7766;51.534;6.722;2023-05-07T00:48:24;12.20;;;10.73;;
15331;SDS011;7766;51.534;6.722;2023-05-07T00:49:27;12.37;;;10.90;;
15331;SDS011;7766;51.534;6.722;2023-05-07T00:50:41;12.97;;;11.13;;
15331;SDS011;7766;51.534;6.722;2023-05-07T00:51:42;12.33;;;10.77;;
15331;SDS011;7766;51.534;6.722;2023-05-07T00:52:44;12.20;;;11.00;;
15331;SDS011;7766;51.534;6.722;2023-05-07T00:53:45;11.73;;;10.57;;
15331;SDS011;7766;51.534;6.722;2023-05-07T00:54:47;13.03;;;10.90;;
15331;SDS011;7766;51.534;6.722;2023-05-07T00:55:49;12.60;;;10.77;;
15331;SDS011;7766;51.534;6.722;2023-05-07T00:56:50;12.10;;;10.90;;
15331;SDS011;7766;51.534;6.722;2023-05-07T00:57:51;11.80;;;10.60;;
15331;SDS011;7766;51.534;6.722;2023-05-07T00:58:53;11.20;;;10.10;;
15331;SDS011;7766;51.534;6.722;2023-05-07T00:59:54;12.13;;;10.80;;
15331;SDS011;7766;51.534;6.722;2023-05-07T01:00:55;12.30;;;11.07;;
15331;SDS011;7766;51.534;6.722;2023-05-07T01:01:56;14.77;;;10.90;;
15331;SDS011;7766;51.534;6.722;2023-05-07T01:02:57;11.90;;;10.70;;
15331;SDS011;7766;51.534;6.722;2023-05-07T01:03:59;12.43;;;11.13;;
15331;SDS011;7766;51.534;6.722;2023-05-07T01:05:00;11.57;;;10.43;;
15331;SDS011;7766;51.534;6.722;2023-05-07T01:06:03;14.17;;;10.73;;
15331;SDS011;7766;51.534;6.722;2023-05-07T01:07:06;12.00;;;10.80;;
15331;SDS011;7766;51.534;6.722;2023-05-07T01:08:07;12.50;;;11.17;;
15331;SDS011;7766;51.534;6.722;2023-05-07T01:09:08;12.40;;;10.93;;
15331;SDS011;7766;51.534;6.722;2023-05-07T01:10:09;13.10;;;11.80;;
15331;SDS011;7766;51.534;6.722;2023-05-07T01:11:11;11.77;;;10.67;;
15331;SDS011;7766;51.534;6.722;2023-05-07T01:12:13;11.83;;;10.50;;
15331;SDS011;7766;51.534;6.722;2023-05-07T01:13:15;13.53;;;11.43;;
15331;SDS011;7766;51.534;6.722;2023-05-07T01:14:17;14.13;;;11.17;;
15331;SDS011;7766;51.534;6.722;2023-05-07T01:15:18;12.80;;;11.27;;
15331;SDS011;7766;51.534;6.722;2023-05-07T01:16:20;13.13;;;11.23;;
15331;SDS011;7766;51.534;6.722;2023-05-07T01:17:21;12.67;;;11.20;;
15331;SDS011;7766;51.534;6.722;2023-05-07T01:18:23;12.87;;;11.10;;
15331;SDS011;7766;51.534;6.722;2023-05-07T01:19:25;12.27;;;11.00;;
15331;SDS011;7766;51.534;6.722;2023-05-07T01:20:28;12.27;;;11.03;;
15331;SDS011;7766;51.534;6.722;2023-05-07T01:21:31;13.10;;;11.53;;
15331;SDS011;7766;51.534;6.722;2023-05-07T01:22:34;14.53;;;11.70;;
15331;SDS011;7766;51.534;6.722;2023-05-07T01:23:36;12.50;;;11.20;;
15331;SDS011;7766;51.534;6.722;2023-05-07T01:24:38;12.57;;;11.27;;
15331;SDS011;7766;51.534;6.722;2023-05-07T01:25:39;13.27;;;11.90;;
15331;SDS011;7766;51.534;6.722;2023-05-07T01:26:42;12.87;;;11.43;;
15331;SDS011;7766;51.534;6.722;2023-05-07T01:27:44;15.57;;;11.93;;
15331;SDS011;7766;51.534;6.722;2023-05-07T01:28:45;12.40;;;11.20;;
15331;SDS011;7766;51.534;6.722;2023-05-07T01:29:46;14.43;;;11.63;;
15331;SDS011;7766;51.534;6.722;2023-05-07T01:30:52;12.30;;;11.10;;
15331;SDS011;7766;51.534;6.722;2023-05-07T01:31:57;12.83;;;11.63;;
15331;SDS011;7766;51.534;6.722;2023-05-07T01:33:09;11.87;;;10.60;;
15331;SDS011;7766;51.534;6.722;2023-05-07T01:34:13;13.33;;;11.63;;
15331;SDS011;7766;51.534;6.722;2023-05-07T01:35:18;12.53;;;11.37;;
15331;SDS011;7766;51.534;6.722;2023-05-07T01:36:22;12.77;;;11.30;;
15331;SDS011;7766;51.534;6.722;2023-05-07T01:37:26;12.60;;;11.30;;
15331;SDS011;7766;51.534;6.722;2023-05-07T01:38:27;13.53;;;11.80;;
15331;SDS011;7766;51.534;6.722;2023-05-07T01:39:29;11.97;;;10.77;;
15331;SDS011;7766;51.534;6.722;2023-05-07T01:40:31;12.17;;;10.87;;
15331;SDS011;7766;51.534;6.722;2023-05-07T01:41:34;15.07;;;12.23;;
15331;SDS011;7766;51.534;6.722;2023-05-07T01:42:35;18.13;;;12.07;;
15331;SDS011;7766;51.534;6.722;2023-05-07T01:43:37;13.73;;;11.50;;
15331;SDS011;7766;51.534;6.722;2023-05-07T01:44:39;15.57;;;12.10;;
15331;SDS011;7766;51.534;6.722;2023-05-07T01:45:40;15.97;;;12.13;;
15331;SDS011;7766;51.534;6.722;2023-05-07T01:46:41;14.80;;;11.87;;
15331;SDS011;7766;51.534;6.722;2023-05-07T01:47:42;15.93;;;13.03;;
15331;SDS011;7766;51.534;6.722;2023-05-07T01:48:44;13.90;;;12.13;;
15331;SDS011;7766;51.534;6.722;2023-05-07T01:49:46;15.77;;;13.33;;
15331;SDS011;7766;51.534;6.722;2023-05-07T01:50:47;14.57;;;12.90;;
15331;SDS011;7766;51.534;6.722;2023-05-07T01:51:48;14.13;;;12.63;;
15331;SDS011;7766;51.534;6.722;2023-05-07T01:52:50;15.03;;;12.30;;
15331;SDS011;7766;51.534;6.722;2023-05-07T01:53:52;13.23;;;11.93;;
15331;SDS011;7766;51.534;6.722;2023-05-07T01:54:53;14.43;;;11.67;;
15331;SDS011;7766;51.534;6.722;2023-05-07T01:55:54;15.27;;;11.73;;
15331;SDS011;7766;51.534;6.722;2023-05-07T01:56:55;12.73;;;11.47;;
15331;SDS011;7766;51.534;6.722;2023-05-07T01:57:57;13.23;;;11.40;;
15331;SDS011;7766;51.534;6.722;2023-05-07T01:58:58;12.37;;;11.20;;
15331;SDS011;7766;51.534;6.722;2023-05-07T01:59:59;13.87;;;12.47;;
15331;SDS011;7766;51.534;6.722;2023-05-07T02:01:00;14.30;;;12.40;;
15331;SDS011;7766;51.534;6.722;2023-05-07T02:02:01;12.97;;;11.77;;
15331;SDS011;7766;51.534;6.722;2023-05-07T02:03:02;14.50;;;12.90;;
15331;SDS011;7766;51.534;6.722;2023-05-07T02:04:03;13.37;;;11.97;;
15331;SDS011;7766;51.534;6.722;2023-05-07T02:05:04;13.67;;;12.23;;
15331;SDS011;7766;51.534;6.722;2023-05-07T02:06:06;13.27;;;11.97;;
15331;SDS011;7766;51.534;6.722;2023-05-07T02:07:07;13.70;;;11.87;;
15331;SDS011;7766;51.534;6.722;2023-05-07T02:08:08;14.33;;;11.80;;
15331;SDS011;7766;51.534;6.722;2023-05-07T02:09:10;13.90;;;12.43;;
15331;SDS011;7766;51.534;6.722;2023-05-07T02:10:11;14.37;;;13.07;;
15331;SDS011;7766;51.534;6.722;2023-05-07T02:11:12;13.30;;;11.90;;
15331;SDS011;7766;51.534;6.722;2023-05-07T02:12:13;12.60;;;11.27;;
15331;SDS011;7766;51.534;6.722;2023-05-07T02:13:14;14.83;;;12.20;;
15331;SDS011;7766;51.534;6.722;2023-05-07T02:14:15;14.00;;;12.60;;
15331;SDS011;7766;51.534;6.722;2023-05-07T02:15:16;14.07;;;12.77;;
15331;SDS011;7766;51.534;6.722;2023-05-07T02:16:17;13.93;;;12.47;;
15331;SDS011;7766;51.534;6.722;2023-05-07T02:17:19;18.07;;;13.00;;
15331;SDS011;7766;51.534;6.722;2023-05-07T02:18:20;15.23;;;12.97;;
15331;SDS011;7766;51.534;6.722;2023-05-07T02:19:21;14.23;;;12.50;;
15331;SDS011;7766;51.534;6.722;2023-05-07T02:20:22;14.43;;;12.97;;
15331;SDS011;7766;51.534;6.722;2023-05-07T02:21:24;13.50;;;12.10;;
15331;SDS011;7766;51.534;6.722;2023-05-07T02:22:25;14.00;;;12.50;;
15331;SDS011;7766;51.534;6.722;2023-05-07T02:23:26;13.97;;;12.57;;
15331;SDS011;7766;51.534;6.722;2023-05-07T02:24:27;14.17;;;12.77;;
15331;SDS011;7766;51.534;6.722;2023-05-07T02:25:28;16.77;;;13.27;;
15331;SDS011;7766;51.534;6.722;2023-05-07T02:26:29;13.37;;;12.10;;
15331;SDS011;7766;51.534;6.722;2023-05-07T02:27:30;15.60;;;13.30;;
15331;SDS011;7766;51.534;6.722;2023-05-07T02:28:31;13.57;;;12.23;;
15331;SDS011;7766;51.534;6.722;2023-05-07T02:29:35;13.77;;;12.47;;
15331;SDS011;7766;51.534;6.722;2023-05-07T02:30:36;14.57;;;13.07;;
15331;SDS011;7766;51.534;6.722;2023-05-07T02:31:38;15.07;;;13.57;;
15331;SDS011;7766;51.534;6.722;2023-05-07T02:32:39;13.80;;;12.40;;
15331;SDS011;7766;51.534;6.722;2023-05-07T02:33:40;14.27;;;12.87;;
15331;SDS011;7766;51.534;6.722;2023-05-07T02:34:40;14.43;;;12.83;;
15331;SDS011;7766;51.534;6.722;2023-05-07T02:35:41;13.60;;;12.30;;
15331;SDS011;7766;51.534;6.722;2023-05-07T02:36:42;15.70;;;12.67;;
15331;SDS011;7766;51.534;6.722;2023-05-07T02:37:43;14.57;;;13.07;;
15331;SDS011;7766;51.534;6.722;2023-05-07T02:38:44;15.40;;;13.87;;
15331;SDS011;7766;51.534;6.722;2023-05-07T02:39:46;16.27;;;12.93;;
15331;SDS011;7766;51.534;6.722;2023-05-07T02:40:47;14.10;;;12.70;;
15331;SDS011;7766;51.534;6.722;2023-05-07T02:41:48;14.13;;;12.63;;
15331;SDS011;7766;51.534;6.722;2023-05-07T02:42:48;14.00;;;12.60;;
15331;SDS011;7766;51.534;6.722;2023-05-07T02:43:49;15.63;;;13.27;;
15331;SDS011;7766;51.534;6.722;2023-05-07T02:44:50;13.93;;;12.57;;
15331;SDS011;7766;51.534;6.722;2023-05-07T02:46:01;14.07;;;12.67;;
15331;SDS011;7766;51.534;6.722;2023-05-07T02:47:03;14.43;;;12.93;;
15331;SDS011;7766;51.534;6.722;2023-05-07T02:48:04;14.73;;;13.20;;
15331;SDS011;7766;51.534;6.722;2023-05-07T02:49:06;15.93;;;14.33;;
15331;SDS011;7766;51.534;6.722;2023-05-07T02:50:07;16.63;;;13.23;;
15331;SDS011;7766;51.534;6.722;2023-05-07T02:51:08;14.87;;;12.97;;
15331;SDS011;7766;51.534;6.722;2023-05-07T02:52:09;14.63;;;13.23;;
15331;SDS011;7766;51.534;6.722;2023-05-07T02:53:10;14.73;;;13.33;;
15331;SDS011;7766;51.534;6.722;2023-05-07T02:54:11;16.20;;;14.07;;
15331;SDS011;7766;51.534;6.722;2023-05-07T02:55:12;14.70;;;13.20;;
15331;SDS011;7766;51.534;6.722;2023-05-07T02:56:13;15.97;;;13.53;;
15331;SDS011;7766;51.534;6.722;2023-05-07T02:57:14;15.40;;;13.80;;
15331;SDS011;7766;51.534;6.722;2023-05-07T02:58:15;15.47;;;13.97;;
15331;SDS011;7766;51.534;6.722;2023-05-07T02:59:16;16.30;;;13.60;;
15331;SDS011;7766;51.534;6.722;2023-05-07T03:00:18;15.73;;;13.80;;
15331;SDS011;7766;51.534;6.722;2023-05-07T03:01:19;17.07;;;14.20;;
15331;SDS011;7766;51.534;6.722;2023-05-07T03:02:20;16.33;;;14.63;;
15331;SDS011;7766;51.534;6.722;2023-05-07T03:03:21;15.90;;;14.23;;
15331;SDS011;7766;51.534;6.722;2023-05-07T03:04:22;16.07;;;14.10;;
15331;SDS011;7766;51.534;6.722;2023-05-07T03:05:23;17.27;;;14.70;;
15331;SDS011;7766;51.534;6.722;2023-05-07T03:06:24;15.33;;;13.73;;
15331;SDS011;7766;51.534;6.722;2023-05-07T03:07:26;15.83;;;14.23;;
15331;SDS011;7766;51.534;6.722;2023-05-07T03:08:27;16.57;;;14.83;;
15331;SDS011;7766;51.534;6.722;2023-05-07T03:09:28;18.67;;;15.00;;
15331;SDS011;7766;51.534;6.722;2023-05-07T03:10:29;16.33;;;14.60;;
15331;SDS011;7766;51.534;6.722;2023-05-07T03:11:30;16.47;;;14.17;;
15331;SDS011;7766;51.534;6.722;2023-05-07T03:12:31;18.20;;;14.60;;
15331;SDS011;7766;51.534;6.722;2023-05-07T03:13:32;17.10;;;14.90;;
15331;SDS011;7766;51.534;6.722;2023-05-07T03:14:33;17.27;;;15.03;;
15331;SDS011;7766;51.534;6.722;2023-05-07T03:15:34;17.07;;;15.27;;
15331;SDS011;7766;51.534;6.722;2023-05-07T03:16:35;16.73;;;15.10;;
15331;SDS011;7766;51.534;6.722;2023-05-07T03:17:36;16.73;;;15.00;;
15331;SDS011;7766;51.534;6.722;2023-05-07T03:18:37;18.87;;;15.03;;
15331;SDS011;7766;51.534;6.722;2023-05-07T03:19:38;19.17;;;16.20;;
15331;SDS011;7766;51.534;6.722;2023-05-07T03:20:39;17.07;;;15.27;;
15331;SDS011;7766;51.534;6.722;2023-05-07T03:21:41;16.67;;;14.97;;
15331;SDS011;7766;51.534;6.722;2023-05-07T03:22:42;17.00;;;14.27;;
15331;SDS011;7766;51.534;6.722;2023-05-07T03:23:42;17.93;;;13.97;;
15331;SDS011;7766;51.534;6.722;2023-05-07T03:24:43;18.27;;;16.40;;
15331;SDS011;7766;51.534;6.722;2023-05-07T03:25:44;16.33;;;14.57;;
15331;SDS011;7766;51.534;6.722;2023-05-07T03:26:45;17.53;;;15.73;;
15331;SDS011;7766;51.534;6.722;2023-05-07T03:27:46;16.87;;;15.03;;
15331;SDS011;7766;51.534;6.722;2023-05-07T03:28:47;17.83;;;16.13;;
15331;SDS011;7766;51.534;6.722;2023-05-07T03:29:48;16.73;;;14.87;;
15331;SDS011;7766;51.534;6.722;2023-05-07T03:30:49;17.20;;;15.40;;
15331;SDS011;7766;51.534;6.722;2023-05-07T03:31:50;17.13;;;15.23;;
15331;SDS011;7766;51.534;6.722;2023-05-07T03:32:51;18.90;;;15.23;;
15331;SDS011;7766;51.534;6.722;2023-05-07T03:33:53;16.87;;;15.13;;
15331;SDS011;7766;51.534;6.722;2023-05-07T03:34:55;16.40;;;14.70;;
15331;SDS011;7766;51.534;6.722;2023-05-07T03:35:56;17.60;;;15.70;;
15331;SDS011;7766;51.534;6.722;2023-05-07T03:36:57;17.90;;;16.00;;
15331;SDS011;7766;51.534;6.722;2023-05-07T03:37:58;18.67;;;15.63;;
15331;SDS011;7766;51.534;6.722;2023-05-07T03:38:59;16.57;;;14.87;;
15331;SDS011;7766;51.534;6.722;2023-05-07T03:40:00;17.63;;;15.90;;
15331;SDS011;7766;51.534;6.722;2023-05-07T03:41:02;18.50;;;16.33;;
15331;SDS011;7766;51.534;6.722;2023-05-07T03:42:03;19.50;;;17.00;;
15331;SDS011;7766;51.534;6.722;2023-05-07T03:43:04;17.93;;;16.03;;
15331;SDS011;7766;51.534;6.722;2023-05-07T03:44:05;19.87;;;16.17;;
15331;SDS011;7766;51.534;6.722;2023-05-07T03:45:06;18.27;;;16.33;;
15331;SDS011;7766;51.534;6.722;2023-05-07T03:46:08;17.73;;;15.83;;
15331;SDS011;7766;51.534;6.722;2023-05-07T03:47:09;18.43;;;16.47;;
15331;SDS011;7766;51.534;6.722;2023-05-07T03:48:10;19.43;;;16.73;;
15331;SDS011;7766;51.534;6.722;2023-05-07T03:49:11;17.17;;;15.40;;
15331;SDS011;7766;51.534;6.722;2023-05-07T03:50:12;19.90;;;16.20;;
15331;SDS011;7766;51.534;6.722;2023-05-07T03:51:13;19.27;;;16.47;;
15331;SDS011;7766;51.534;6.722;2023-05-07T03:52:14;16.97;;;15.20;;
15331;SDS011;7766;51.534;6.722;2023-05-07T03:53:15;17.93;;;16.03;;
15331;SDS011;7766;51.534;6.722;2023-05-07T03:54:16;17.77;;;15.93;;
15331;SDS011;7766;51.534;6.722;2023-05-07T03:55:17;18.93;;;16.93;;
15331;SDS011;7766;51.534;6.722;2023-05-07T03:56:18;18.90;;;17.00;;
15331;SDS011;7766;51.534;6.722;2023-05-07T03:57:19;16.83;;;15.07;;
15331;SDS011;7766;51.534;6.722;2023-05-07T03:58:20;18.80;;;16.90;;
15331;SDS011;7766;51.534;6.722;2023-05-07T03:59:22;19.43;;;17.20;;
15331;SDS011;7766;51.534;6.722;2023-05-07T04:00:22;17.57;;;15.87;;
15331;SDS011;7766;51.534;6.722;2023-05-07T04:01:23;19.70;;;16.67;;
15331;SDS011;7766;51.534;6.722;2023-05-07T04:02:24;19.30;;;17.30;;
15331;SDS011;7766;51.534;6.722;2023-05-07T04:03:25;18.40;;;16.50;;
15331;SDS011;7766;51.534;6.722;2023-05-07T04:04:26;17.97;;;16.07;;
15331;SDS011;7766;51.534;6.722;2023-05-07T04:05:27;20.07;;;17.13;;
15331;SDS011;7766;51.534;6.722;2023-05-07T04:06:28;18.30;;;16.60;;
15331;SDS011;7766;51.534;6.722;2023-05-07T04:07:29;18.57;;;16.57;;
15331;SDS011;7766;51.534;6.722;2023-05-07T04:08:30;19.17;;;16.60;;
15331;SDS011;7766;51.534;6.722;2023-05-07T04:09:32;19.47;;;17.37;;
15331;SDS011;7766;51.534;6.722;2023-05-07T04:10:33;18.47;;;16.47;;
15331;SDS011;7766;51.534;6.722;2023-05-07T04:11:34;19.50;;;16.50;;
15331;SDS011;7766;51.534;6.722;2023-05-07T04:12:35;18.57;;;16.63;;
15331;SDS011;7766;51.534;6.722;2023-05-07T04:13:36;19.63;;;17.63;;
15331;SDS011;7766;51.534;6.722;2023-05-07T04:14:37;19.33;;;16.63;;
15331;SDS011;7766;51.534;6.722;2023-05-07T04:15:38;18.00;;;16.20;;
15331;SDS011;7766;51.534;6.722;2023-05-07T04:16:39;19.83;;;17.73;;
15331;SDS011;7766;51.534;6.722;2023-05-07T04:17:40;19.27;;;17.27;;
15331;SDS011;7766;51.534;6.722;2023-05-07T04:18:41;18.63;;;16.63;;
15331;SDS011;7766;51.534;6.722;2023-05-07T04:19:42;18.53;;;16.67;;
15331;SDS011;7766;51.534;6.722;2023-05-07T04:20:45;18.67;;;16.40;;
15331;SDS011;7766;51.534;6.722;2023-05-07T04:21:46;19.93;;;16.93;;
15331;SDS011;7766;51.534;6.722;2023-05-07T04:22:47;18.50;;;16.60;;
15331;SDS011;7766;51.534;6.722;2023-05-07T04:23:48;16.90;;;15.20;;
15331;SDS011;7766;51.534;6.722;2023-05-07T04:24:49;18.77;;;16.80;;
15331;SDS011;7766;51.534;6.722;2023-05-07T04:25:51;18.90;;;16.47;;
15331;SDS011;7766;51.534;6.722;2023-05-07T04:26:52;18.53;;;16.57;;
15331;SDS011;7766;51.534;6.722;2023-05-07T04:27:54;19.27;;;17.23;;
15331;SDS011;7766;51.534;6.722;2023-05-07T04:28:55;19.30;;;16.67;;
15331;SDS011;7766;51.534;6.722;2023-05-07T04:29:59;18.47;;;16.57;;
15331;SDS011;7766;51.534;6.722;2023-05-07T04:31:00;19.17;;;17.17;;
15331;SDS011;7766;51.534;6.722;2023-05-07T04:32:01;17.87;;;16.17;;
15331;SDS011;7766;51.534;6.722;2023-05-07T04:33:02;19.60;;;16.63;;
15331;SDS011;7766;51.534;6.722;2023-05-07T04:34:03;18.40;;;16.60;;
15331;SDS011;7766;51.534;6.722;2023-05-07T04:35:04;18.10;;;16.20;;
15331;SDS011;7766;51.534;6.722;2023-05-07T04:36:05;18.47;;;16.47;;
15331;SDS011;7766;51.534;6.722;2023-05-07T04:37:08;18.37;;;16.47;;
15331;SDS011;7766;51.534;6.722;2023-05-07T04:38:09;19.40;;;16.40;;
15331;SDS011;7766;51.534;6.722;2023-05-07T04:39:10;20.67;;;17.53;;
15331;SDS011;7766;51.534;6.722;2023-05-07T04:40:12;21.17;;;16.70;;
15331;SDS011;7766;51.534;6.722;2023-05-07T04:41:13;17.53;;;15.70;;
15331;SDS011;7766;51.534;6.722;2023-05-07T04:42:18;19.00;;;17.00;;
15331;SDS011;7766;51.534;6.722;2023-05-07T04:43:19;19.03;;;16.97;;
15331;SDS011;7766;51.534;6.722;2023-05-07T04:44:20;18.50;;;16.60;;
15331;SDS011;7766;51.534;6.722;2023-05-07T04:45:21;18.27;;;16.37;;
15331;SDS011;7766;51.534;6.722;2023-05-07T04:46:22;19.43;;;16.47;;
15331;SDS011;7766;51.534;6.722;2023-05-07T04:47:24;18.67;;;16.63;;
15331;SDS011;7766;51.534;6.722;2023-05-07T04:48:25;21.27;;;16.70;;
15331;SDS011;7766;51.534;6.722;2023-05-07T04:49:27;18.87;;;16.93;;
15331;SDS011;7766;51.534;6.722;2023-05-07T04:50:28;19.07;;;16.13;;
15331;SDS011;7766;51.534;6.722;2023-05-07T04:51:28;18.90;;;16.87;;
15331;SDS011;7766;51.534;6.722;2023-05-07T04:52:30;20.60;;;16.77;;
15331;SDS011;7766;51.534;6.722;2023-05-07T04:53:31;23.53;;;16.07;;
15331;SDS011;7766;51.534;6.722;2023-05-07T04:54:32;23.57;;;16.33;;
15331;SDS011;7766;51.534;6.722;2023-05-07T04:55:33;21.73;;;17.20;;
15331;SDS011;7766;51.534;6.722;2023-05-07T04:56:34;17.60;;;15.77;;
15331;SDS011;7766;51.534;6.722;2023-05-07T04:57:35;19.53;;;16.90;;
15331;SDS011;7766;51.534;6.722;2023-05-07T04:58:37;18.57;;;16.57;;
15331;SDS011;7766;51.534;6.722;2023-05-07T04:59:38;19.97;;;17.80;;
15331;SDS011;7766;51.534;6.722;2023-05-07T05:00:39;19.27;;;16.63;;
15331;SDS011;7766;51.534;6.722;2023-05-07T05:01:40;18.63;;;16.43;;
15331;SDS011;7766;51.534;6.722;2023-05-07T05:02:41;18.43;;;16.27;;
15331;SDS011;7766;51.534;6.722;2023-05-07T05:03:42;20.90;;;16.83;;
15331;SDS011;7766;51.534;6.722;2023-05-07T05:04:43;18.80;;;16.90;;
15331;SDS011;7766;51.534;6.722;2023-05-07T05:05:44;19.63;;;17.30;;
15331;SDS011;7766;51.534;6.722;2023-05-07T05:06:45;19.53;;;17.43;;
15331;SDS011;7766;51.534;6.722;2023-05-07T05:07:46;19.07;;;17.10;;
15331;SDS011;7766;51.534;6.722;2023-05-07T05:08:47;18.27;;;16.27;;
15331;SDS011;7766;51.534;6.722;2023-05-07T05:09:48;19.23;;;17.33;;
15331;SDS011;7766;51.534;6.722;2023-05-07T05:10:49;19.17;;;17.23;;
15331;SDS011;7766;51.534;6.722;2023-05-07T05:11:50;19.33;;;16.63;;
15331;SDS011;7766;51.534;6.722;2023-05-07T05:12:51;20.17;;;17.50;;
15331;SDS011;7766;51.534;6.722;2023-05-07T05:13:52;18.67;;;16.77;;
15331;SDS011;7766;51.534;6.722;2023-05-07T05:14:54;20.50;;;17.03;;
15331;SDS011;7766;51.534;6.722;2023-05-07T05:15:55;20.33;;;17.60;;
15331;SDS011;7766;51.534;6.722;2023-05-07T05:16:55;18.47;;;16.50;;
15331;SDS011;7766;51.534;6.722;2023-05-07T05:17:56;19.83;;;17.23;;
15331;SDS011;7766;51.534;6.722;2023-05-07T05:18:57;20.17;;;17.93;;
15331;SDS011;7766;51.534;6.722;2023-05-07T05:19:58;18.47;;;16.57;;
15331;SDS011;7766;51.534;6.722;2023-05-07T05:20:59;21.63;;;17.27;;
15331;SDS011;7766;51.534;6.722;2023-05-07T05:22:00;19.07;;;16.63;;
15331;SDS011;7766;51.534;6.722;2023-05-07T05:23:03;19.70;;;16.60;;
15331;SDS011;7766;51.534;6.722;2023-05-07T05:24:04;18.67;;;16.30;;
15331;SDS011;7766;51.534;6.722;2023-05-07T05:25:05;21.00;;;16.17;;
15331;SDS011;7766;51.534;6.722;2023-05-07T05:26:06;19.30;;;16.50;;
15331;SDS011;7766;51.534;6.722;2023-05-07T05:27:07;18.17;;;15.47;;
15331;SDS011;7766;51.534;6.722;2023-05-07T05:28:08;18.43;;;16.33;;
15331;SDS011;7766;51.534;6.722;2023-05-07T05:29:09;16.50;;;14.80;;
15331;SDS011;7766;51.534;6.722;2023-05-07T05:30:10;18.57;;;15.83;;
15331;SDS011;7766;51.534;6.722;2023-05-07T05:31:11;17.30;;;15.50;;
15331;SDS011;7766;51.534;6.722;2023-05-07T05:32:14;19.90;;;16.50;;
15331;SDS011;7766;51.534;6.722;2023-05-07T05:33:15;19.83;;;16.23;;
15331;SDS011;7766;51.534;6.722;2023-05-07T05:34:16;19.03;;;16.57;;
15331;SDS011;7766;51.534;6.722;2023-05-07T05:35:19;18.13;;;15.80;;
15331;SDS011;7766;51.534;6.722;2023-05-07T05:36:20;21.17;;;16.70;;
15331;SDS011;7766;51.534;6.722;2023-05-07T05:37:21;18.60;;;15.87;;
15331;SDS011;7766;51.534;6.722;2023-05-07T05:38:22;18.83;;;15.40;;
15331;SDS011;7766;51.534;6.722;2023-05-07T05:39:23;18.83;;;16.53;;
15331;SDS011;7766;51.534;6.722;2023-05-07T05:40:24;18.37;;;15.23;;
15331;SDS011;7766;51.534;6.722;2023-05-07T05:41:24;18.17;;;15.83;;
15331;SDS011;7766;51.534;6.722;2023-05-07T05:42:25;18.73;;;16.30;;
15331;SDS011;7766;51.534;6.722;2023-05-07T05:43:27;20.37;;;16.77;;
15331;SDS011;7766;51.534;6.722;2023-05-07T05:44:28;19.17;;;15.97;;
15331;SDS011;7766;51.534;6.722;2023-05-07T05:45:29;20.60;;;15.83;;
15331;SDS011;7766;51.534;6.722;2023-05-07T05:46:30;20.87;;;16.70;;
15331;SDS011;7766;51.534;6.722;2023-05-07T05:47:31;19.40;;;16.17;;
15331;SDS011;7766;51.534;6.722;2023-05-07T05:48:32;21.40;;;17.00;;
15331;SDS011;7766;51.534;6.722;2023-05-07T05:49:33;19.30;;;15.43;;
15331;SDS011;7766;51.534;6.722;2023-05-07T05:50:35;18.97;;;16.13;;
15331;SDS011;7766;51.534;6.722;2023-05-07T05:51:36;18.73;;;16.60;;
15331;SDS011;7766;51.534;6.722;2023-05-07T05:52:37;17.50;;;15.13;;
15331;SDS011;7766;51.534;6.722;2023-05-07T05:53:38;17.67;;;15.80;;
15331;SDS011;7766;51.534;6.722;2023-05-07T05:54:39;19.17;;;16.17;;
15331;SDS011;7766;51.534;6.722;2023-05-07T05:55:41;19.20;;;15.40;;
15331;SDS011;7766;51.534;6.722;2023-05-07T05:56:42;18.37;;;14.90;;
15331;SDS011;7766;51.534;6.722;2023-05-07T05:57:43;19.30;;;15.87;;
15331;SDS011;7766;51.534;6.722;2023-05-07T05:58:44;22.23;;;15.67;;
15331;SDS011;7766;51.534;6.722;2023-05-07T05:59:46;17.07;;;14.73;;
15331;SDS011;7766;51.534;6.722;2023-05-07T06:00:47;18.27;;;14.43;;
15331;SDS011;7766;51.534;6.722;2023-05-07T06:01:48;16.20;;;14.20;;
15331;SDS011;7766;51.534;6.722;2023-05-07T06:02:49;17.50;;;14.27;;
15331;SDS011;7766;51.534;6.722;2023-05-07T06:03:49;16.10;;;14.17;;
15331;SDS011;7766;51.534;6.722;2023-05-07T06:04:50;16.40;;;14.63;;